Cook, MN (55723)

5:12 PM CDT on August 03, 2015 (GMT -0500)
Cook Municipal | | Change Station
CLOSE
Current Station
Airport
Location: Cook,
Elevation: 1325 ft
Nearby Weather Stations

Elev 1325 ft 47.82 °N, 92.69 °W | Updated 18 minutes ago

Mostly Cloudy
Mostly Cloudy
64 °F
Feels Like 64 °F
N
12
Wind Variable Wind from NW
Gusts 18 mph

Today
High -- | Low -- °F
--% Chance of Precip.
Yesterday
High -- | Low -- °F
Precip. -- in
5:50 AM 8:43 PM
Waning Gibbous, 83% visible
Pressure 29.87 in
Visibility 10.0 miles
Clouds Scattered Clouds 3100 ft
Mostly Cloudy 4900 ft
Mostly Cloudy 6000 ft
Dew Point 55 °F
Humidity 73%
Rainfall 0.00 in
Snow Depth Not available.
UV 2 out of 12
Pollen 4.60 out of 12
Air Quality Not available.
Flu Activity Not available.
METAR KCQM 032154Z AUTO 31010G16KT 271V001 10SM SCT031 BKN049 BKN060 18/13 A2987 RMK AO2

More Conditions Fewer Conditions

Pressure 29.87 in
Visibility 10.0 miles
Clouds Scattered Clouds 3100 ft
Mostly Cloudy 4900 ft
Mostly Cloudy 6000 ft
Dew Point 55 °F
Humidity 73%
Rainfall 0.00 in
Snow Depth Not available.
UV 2 out of 12
Pollen 4.60 out of 12
Air Quality Not available.
Flu Activity Not available.
METAR KCQM 032154Z AUTO 31010G16KT 271V001 10SM SCT031 BKN049 BKN060 18/13 A2987 RMK AO2

More Conditions Fewer Conditions

10-Day Weather Forecast

×

Almanac

Astronomy

Aug. 03, 2015 Rise Set
Actual Time
Civil Twilight
Nautical Twilight
Astronomical Twilight
Moon
Length of Visible Light
Length of Day
Tomorrow will be .
, % of the Moon is Illuminated

Today's Extremes

State Highs State Lows

Community

WunderPhotos

Upload Photos

1,843,782 photos uploaded!

WunderBlogs® & News

Nearby

Air Quality

  Air Quality AQ Index Pollutant
Not available.

Snow Depth

Station Depth Elevation

Earthquake Activity

City Distance Mag. Time & Date
Minimum magnitude displayed is 2.5.

Coastal Water Temperatures

Place Temperature

Stations

Nearby Weather Stations

Station Location Temp. Windchill Dew Point Humidity Wind Precip. Elev Updated Type